sensor_id;sensor_type;location;lat;lon;timestamp;P1;durP1;ratioP1;P2;durP2;ratioP2
11490;SDS011;5802;52.832;4.758;2023-05-10T00:02:16;2.47;;;0.98;;
11490;SDS011;5802;52.832;4.758;2023-05-10T00:04:43;3.75;;;0.70;;
11490;SDS011;5802;52.832;4.758;2023-05-10T00:07:10;2.45;;;0.68;;
11490;SDS011;5802;52.832;4.758;2023-05-10T00:09:37;2.00;;;0.90;;
11490;SDS011;5802;52.832;4.758;2023-05-10T00:12:04;2.47;;;1.08;;
11490;SDS011;5802;52.832;4.758;2023-05-10T00:14:32;3.05;;;1.00;;
11490;SDS011;5802;52.832;4.758;2023-05-10T00:16:58;3.90;;;1.00;;
11490;SDS011;5802;52.832;4.758;2023-05-10T00:19:25;2.55;;;0.88;;
11490;SDS011;5802;52.832;4.758;2023-05-10T00:21:52;2.85;;;0.90;;
11490;SDS011;5802;52.832;4.758;2023-05-10T00:24:18;2.10;;;0.70;;
11490;SDS011;5802;52.832;4.758;2023-05-10T00:26:45;1.98;;;0.80;;
11490;SDS011;5802;52.832;4.758;2023-05-10T00:29:12;2.90;;;0.93;;
11490;SDS011;5802;52.832;4.758;2023-05-10T00:31:40;3.50;;;0.95;;
11490;SDS011;5802;52.832;4.758;2023-05-10T00:34:07;2.78;;;1.10;;
11490;SDS011;5802;52.832;4.758;2023-05-10T00:36:34;1.05;;;0.80;;
11490;SDS011;5802;52.832;4.758;2023-05-10T00:39:01;3.67;;;0.88;;
11490;SDS011;5802;52.832;4.758;2023-05-10T00:41:28;2.05;;;0.80;;
11490;SDS011;5802;52.832;4.758;2023-05-10T00:43:56;2.10;;;0.98;;
11490;SDS011;5802;52.832;4.758;2023-05-10T00:46:23;3.72;;;0.85;;
11490;SDS011;5802;52.832;4.758;2023-05-10T00:48:52;2.58;;;1.10;;
11490;SDS011;5802;52.832;4.758;2023-05-10T00:51:18;2.15;;;0.93;;
11490;SDS011;5802;52.832;4.758;2023-05-10T00:53:45;3.88;;;0.90;;
11490;SDS011;5802;52.832;4.758;2023-05-10T00:56:12;1.20;;;0.73;;
11490;SDS011;5802;52.832;4.758;2023-05-10T00:58:39;2.03;;;0.77;;
11490;SDS011;5802;52.832;4.758;2023-05-10T01:01:06;0.98;;;0.70;;
11490;SDS011;5802;52.832;4.758;2023-05-10T01:03:34;1.55;;;0.73;;
11490;SDS011;5802;52.832;4.758;2023-05-10T01:06:03;2.17;;;0.82;;
11490;SDS011;5802;52.832;4.758;2023-05-10T01:08:30;1.58;;;0.85;;
11490;SDS011;5802;52.832;4.758;2023-05-10T01:10:57;2.60;;;0.90;;
11490;SDS011;5802;52.832;4.758;2023-05-10T01:13:30;1.48;;;0.73;;
11490;SDS011;5802;52.832;4.758;2023-05-10T01:15:59;2.42;;;0.82;;
11490;SDS011;5802;52.832;4.758;2023-05-10T01:18:27;2.45;;;0.85;;
11490;SDS011;5802;52.832;4.758;2023-05-10T01:20:59;1.15;;;0.63;;
11490;SDS011;5802;52.832;4.758;2023-05-10T01:23:42;1.33;;;0.70;;
11490;SDS011;5802;52.832;4.758;2023-05-10T01:26:30;1.00;;;0.70;;
11490;SDS011;5802;52.832;4.758;2023-05-10T01:29:39;2.45;;;0.82;;
11490;SDS011;5802;52.832;4.758;2023-05-10T01:32:26;0.85;;;0.68;;
11490;SDS011;5802;52.832;4.758;2023-05-10T01:34:59;1.50;;;0.80;;
11490;SDS011;5802;52.832;4.758;2023-05-10T01:37:30;1.33;;;0.75;;
11490;SDS011;5802;52.832;4.758;2023-05-10T01:40:03;0.90;;;0.70;;
11490;SDS011;5802;52.832;4.758;2023-05-10T01:42:36;1.20;;;0.73;;
11490;SDS011;5802;52.832;4.758;2023-05-10T01:45:07;0.75;;;0.65;;
11490;SDS011;5802;52.832;4.758;2023-05-10T01:47:44;0.88;;;0.70;;
11490;SDS011;5802;52.832;4.758;2023-05-10T01:50:15;1.40;;;0.82;;
11490;SDS011;5802;52.832;4.758;2023-05-10T01:52:44;0.40;;;0.40;;
11490;SDS011;5802;52.832;4.758;2023-05-10T01:55:16;1.95;;;1.10;;
11490;SDS011;5802;52.832;4.758;2023-05-10T01:57:46;1.38;;;0.80;;
11490;SDS011;5802;52.832;4.758;2023-05-10T02:00:16;4.03;;;0.88;;
11490;SDS011;5802;52.832;4.758;2023-05-10T02:02:47;0.70;;;0.60;;
11490;SDS011;5802;52.832;4.758;2023-05-10T02:05:16;1.08;;;0.68;;
11490;SDS011;5802;52.832;4.758;2023-05-10T02:07:43;1.02;;;0.60;;
11490;SDS011;5802;52.832;4.758;2023-05-10T02:10:11;0.60;;;0.50;;
11490;SDS011;5802;52.832;4.758;2023-05-10T02:12:41;0.85;;;0.63;;
11490;SDS011;5802;52.832;4.758;2023-05-10T02:15:10;0.70;;;0.52;;
11490;SDS011;5802;52.832;4.758;2023-05-10T02:17:38;1.40;;;0.98;;
11490;SDS011;5802;52.832;4.758;2023-05-10T02:20:09;1.48;;;0.60;;
11490;SDS011;5802;52.832;4.758;2023-05-10T02:22:37;1.30;;;0.82;;
11490;SDS011;5802;52.832;4.758;2023-05-10T02:25:05;1.40;;;0.60;;
11490;SDS011;5802;52.832;4.758;2023-05-10T02:27:34;0.60;;;0.60;;
11490;SDS011;5802;52.832;4.758;2023-05-10T02:30:02;1.33;;;0.70;;
11490;SDS011;5802;52.832;4.758;2023-05-10T02:32:32;0.60;;;0.50;;
11490;SDS011;5802;52.832;4.758;2023-05-10T02:34:59;0.90;;;0.50;;
11490;SDS011;5802;52.832;4.758;2023-05-10T02:37:30;0.50;;;0.40;;
11490;SDS011;5802;52.832;4.758;2023-05-10T02:39:57;1.20;;;0.60;;
11490;SDS011;5802;52.832;4.758;2023-05-10T02:42:26;1.17;;;0.50;;
11490;SDS011;5802;52.832;4.758;2023-05-10T02:44:56;2.55;;;0.50;;
11490;SDS011;5802;52.832;4.758;2023-05-10T02:47:26;1.00;;;0.75;;
11490;SDS011;5802;52.832;4.758;2023-05-10T02:49:53;1.10;;;0.50;;
11490;SDS011;5802;52.832;4.758;2023-05-10T02:52:21;0.30;;;0.30;;
11490;SDS011;5802;52.832;4.758;2023-05-10T02:54:54;1.45;;;0.70;;
11490;SDS011;5802;52.832;4.758;2023-05-10T02:57:23;0.60;;;0.40;;
11490;SDS011;5802;52.832;4.758;2023-05-10T02:59:53;0.55;;;0.40;;
11490;SDS011;5802;52.832;4.758;2023-05-10T03:02:20;0.93;;;0.32;;
11490;SDS011;5802;52.832;4.758;2023-05-10T03:04:47;0.50;;;0.50;;
11490;SDS011;5802;52.832;4.758;2023-05-10T03:07:14;0.80;;;0.52;;
11490;SDS011;5802;52.832;4.758;2023-05-10T03:09:41;0.40;;;0.40;;
11490;SDS011;5802;52.832;4.758;2023-05-10T03:12:11;0.40;;;0.40;;
11490;SDS011;5802;52.832;4.758;2023-05-10T03:14:45;0.57;;;0.40;;
11490;SDS011;5802;52.832;4.758;2023-05-10T03:17:20;0.60;;;0.50;;
11490;SDS011;5802;52.832;4.758;2023-05-10T03:19:52;1.38;;;0.52;;
11490;SDS011;5802;52.832;4.758;2023-05-10T03:22:26;0.65;;;0.65;;
11490;SDS011;5802;52.832;4.758;2023-05-10T03:24:57;0.98;;;0.47;;
11490;SDS011;5802;52.832;4.758;2023-05-10T03:27:28;0.70;;;0.45;;
11490;SDS011;5802;52.832;4.758;2023-05-10T03:29:56;1.10;;;0.40;;
11490;SDS011;5802;52.832;4.758;2023-05-10T03:32:23;0.82;;;0.50;;
11490;SDS011;5802;52.832;4.758;2023-05-10T03:34:52;0.57;;;0.50;;
11490;SDS011;5802;52.832;4.758;2023-05-10T03:37:19;0.90;;;0.60;;
11490;SDS011;5802;52.832;4.758;2023-05-10T03:39:45;1.63;;;0.50;;
11490;SDS011;5802;52.832;4.758;2023-05-10T03:42:12;5.40;;;0.55;;
11490;SDS011;5802;52.832;4.758;2023-05-10T03:44:40;1.52;;;0.57;;
11490;SDS011;5802;52.832;4.758;2023-05-10T03:47:06;1.02;;;0.60;;
11490;SDS011;5802;52.832;4.758;2023-05-10T03:49:33;1.50;;;0.70;;
11490;SDS011;5802;52.832;4.758;2023-05-10T03:52:00;0.70;;;0.50;;
11490;SDS011;5802;52.832;4.758;2023-05-10T03:54:26;1.63;;;0.60;;
11490;SDS011;5802;52.832;4.758;2023-05-10T03:56:53;0.40;;;0.40;;
11490;SDS011;5802;52.832;4.758;2023-05-10T03:59:20;0.45;;;0.35;;
11490;SDS011;5802;52.832;4.758;2023-05-10T04:01:48;5.35;;;0.60;;
11490;SDS011;5802;52.832;4.758;2023-05-10T04:04:15;0.80;;;0.60;;
11490;SDS011;5802;52.832;4.758;2023-05-10T04:06:43;0.50;;;0.50;;
11490;SDS011;5802;52.832;4.758;2023-05-10T04:09:10;2.35;;;0.60;;
11490;SDS011;5802;52.832;4.758;2023-05-10T04:11:37;0.93;;;0.65;;
11490;SDS011;5802;52.832;4.758;2023-05-10T04:14:03;1.88;;;0.52;;
11490;SDS011;5802;52.832;4.758;2023-05-10T04:16:30;0.63;;;0.52;;
11490;SDS011;5802;52.832;4.758;2023-05-10T04:18:58;0.95;;;0.50;;
11490;SDS011;5802;52.832;4.758;2023-05-10T04:21:25;0.60;;;0.50;;
11490;SDS011;5802;52.832;4.758;2023-05-10T04:23:51;0.70;;;0.60;;
11490;SDS011;5802;52.832;4.758;2023-05-10T04:26:18;0.90;;;0.30;;
11490;SDS011;5802;52.832;4.758;2023-05-10T04:28:45;1.42;;;0.60;;
11490;SDS011;5802;52.832;4.758;2023-05-10T04:31:11;1.50;;;0.40;;
11490;SDS011;5802;52.832;4.758;2023-05-10T04:33:38;1.70;;;0.57;;
11490;SDS011;5802;52.832;4.758;2023-05-10T04:36:06;3.05;;;0.40;;
11490;SDS011;5802;52.832;4.758;2023-05-10T04:38:33;1.55;;;0.40;;
11490;SDS011;5802;52.832;4.758;2023-05-10T04:41:07;1.23;;;0.60;;
11490;SDS011;5802;52.832;4.758;2023-05-10T04:43:34;1.17;;;0.40;;
11490;SDS011;5802;52.832;4.758;2023-05-10T04:46:01;0.88;;;0.60;;
11490;SDS011;5802;52.832;4.758;2023-05-10T04:48:28;0.80;;;0.40;;
11490;SDS011;5802;52.832;4.758;2023-05-10T04:50:55;0.57;;;0.52;;
11490;SDS011;5802;52.832;4.758;2023-05-10T04:53:23;0.95;;;0.60;;
11490;SDS011;5802;52.832;4.758;2023-05-10T04:55:50;1.42;;;0.40;;
11490;SDS011;5802;52.832;4.758;2023-05-10T04:58:16;2.15;;;0.40;;
11490;SDS011;5802;52.832;4.758;2023-05-10T05:00:43;0.90;;;0.30;;
11490;SDS011;5802;52.832;4.758;2023-05-10T05:03:10;0.35;;;0.35;;
11490;SDS011;5802;52.832;4.758;2023-05-10T05:05:36;1.17;;;0.50;;
11490;SDS011;5802;52.832;4.758;2023-05-10T05:08:03;0.63;;;0.50;;
11490;SDS011;5802;52.832;4.758;2023-05-10T05:10:31;0.70;;;0.50;;
11490;SDS011;5802;52.832;4.758;2023-05-10T05:12:58;0.80;;;0.60;;
11490;SDS011;5802;52.832;4.758;2023-05-10T05:15:25;2.47;;;0.60;;
11490;SDS011;5802;52.832;4.758;2023-05-10T05:17:53;0.35;;;0.32;;
11490;SDS011;5802;52.832;4.758;2023-05-10T05:20:20;0.57;;;0.45;;
11490;SDS011;5802;52.832;4.758;2023-05-10T05:22:47;1.05;;;0.50;;
11490;SDS011;5802;52.832;4.758;2023-05-10T05:25:14;0.38;;;0.38;;
11490;SDS011;5802;52.832;4.758;2023-05-10T05:27:42;0.70;;;0.60;;
11490;SDS011;5802;52.832;4.758;2023-05-10T05:30:09;0.60;;;0.50;;
11490;SDS011;5802;52.832;4.758;2023-05-10T05:32:36;0.60;;;0.60;;
11490;SDS011;5802;52.832;4.758;2023-05-10T05:35:03;1.30;;;0.40;;
11490;SDS011;5802;52.832;4.758;2023-05-10T05:37:30;0.70;;;0.70;;
11490;SDS011;5802;52.832;4.758;2023-05-10T05:39:57;0.50;;;0.50;;
11490;SDS011;5802;52.832;4.758;2023-05-10T05:42:26;5.85;;;0.50;;
11490;SDS011;5802;52.832;4.758;2023-05-10T05:44:54;0.47;;;0.47;;
11490;SDS011;5802;52.832;4.758;2023-05-10T05:47:21;1.00;;;0.60;;
11490;SDS011;5802;52.832;4.758;2023-05-10T05:49:48;0.77;;;0.63;;
11490;SDS011;5802;52.832;4.758;2023-05-10T05:52:15;0.75;;;0.70;;
11490;SDS011;5802;52.832;4.758;2023-05-10T05:54:42;2.78;;;0.90;;
11490;SDS011;5802;52.832;4.758;2023-05-10T05:57:09;1.00;;;0.70;;
11490;SDS011;5802;52.832;4.758;2023-05-10T05:59:35;1.10;;;0.80;;
11490;SDS011;5802;52.832;4.758;2023-05-10T06:02:08;2.55;;;0.77;;
11490;SDS011;5802;52.832;4.758;2023-05-10T06:04:34;0.93;;;0.70;;
11490;SDS011;5802;52.832;4.758;2023-05-10T06:07:01;1.50;;;0.75;;
11490;SDS011;5802;52.832;4.758;2023-05-10T06:09:28;1.20;;;1.10;;
11490;SDS011;5802;52.832;4.758;2023-05-10T06:11:54;1.50;;;0.70;;
11490;SDS011;5802;52.832;4.758;2023-05-10T06:14:21;1.10;;;0.82;;
11490;SDS011;5802;52.832;4.758;2023-05-10T06:16:48;1.17;;;0.90;;
11490;SDS011;5802;52.832;4.758;2023-05-10T06:19:16;1.20;;;0.93;;
11490;SDS011;5802;52.832;4.758;2023-05-10T06:21:42;4.13;;;1.10;;
11490;SDS011;5802;52.832;4.758;2023-05-10T06:24:09;1.25;;;0.80;;
11490;SDS011;5802;52.832;4.758;2023-05-10T06:26:36;4.10;;;1.00;;
11490;SDS011;5802;52.832;4.758;2023-05-10T06:29:02;1.33;;;1.00;;
11490;SDS011;5802;52.832;4.758;2023-05-10T06:31:29;4.07;;;1.20;;
11490;SDS011;5802;52.832;4.758;2023-05-10T06:33:56;4.25;;;1.20;;
11490;SDS011;5802;52.832;4.758;2023-05-10T06:36:24;4.40;;;1.40;;
11490;SDS011;5802;52.832;4.758;2023-05-10T06:38:51;4.25;;;1.30;;
11490;SDS011;5802;52.832;4.758;2023-05-10T06:41:18;4.63;;;1.20;;
11490;SDS011;5802;52.832;4.758;2023-05-10T06:43:45;2.95;;;1.10;;
11490;SDS011;5802;52.832;4.758;2023-05-10T06:46:12;2.63;;;1.20;;
11490;SDS011;5802;52.832;4.758;2023-05-10T06:48:38;2.45;;;1.10;;
11490;SDS011;5802;52.832;4.758;2023-05-10T06:51:05;1.88;;;1.17;;
11490;SDS011;5802;52.832;4.758;2023-05-10T06:53:33;2.55;;;1.10;;
11490;SDS011;5802;52.832;4.758;2023-05-10T06:56:00;3.92;;;1.10;;
11490;SDS011;5802;52.832;4.758;2023-05-10T06:58:28;3.22;;;1.27;;
11490;SDS011;5802;52.832;4.758;2023-05-10T07:00:54;2.90;;;1.42;;
11490;SDS011;5802;52.832;4.758;2023-05-10T07:03:28;3.28;;;1.30;;
11490;SDS011;5802;52.832;4.758;2023-05-10T07:05:59;2.22;;;1.15;;
11490;SDS011;5802;52.832;4.758;2023-05-10T07:08:28;1.95;;;1.05;;
11490;SDS011;5802;52.832;4.758;2023-05-10T07:11:00;3.28;;;1.20;;
11490;SDS011;5802;52.832;4.758;2023-05-10T07:13:28;3.80;;;1.15;;
11490;SDS011;5802;52.832;4.758;2023-05-10T07:15:55;2.05;;;1.30;;
11490;SDS011;5802;52.832;4.758;2023-05-10T07:18:22;2.35;;;1.10;;
11490;SDS011;5802;52.832;4.758;2023-05-10T07:20:49;1.80;;;1.10;;
11490;SDS011;5802;52.832;4.758;2023-05-10T07:23:16;1.45;;;1.10;;
11490;SDS011;5802;52.832;4.758;2023-05-10T07:25:44;2.00;;;1.15;;
11490;SDS011;5802;52.832;4.758;2023-05-10T07:28:12;1.88;;;1.10;;
11490;SDS011;5802;52.832;4.758;2023-05-10T07:30:39;1.08;;;0.98;;
11490;SDS011;5802;52.832;4.758;2023-05-10T07:33:06;2.35;;;1.02;;
11490;SDS011;5802;52.832;4.758;2023-05-10T07:35:34;1.45;;;1.05;;
11490;SDS011;5802;52.832;4.758;2023-05-10T07:38:01;2.22;;;1.30;;
11490;SDS011;5802;52.832;4.758;2023-05-10T07:40:28;3.80;;;1.20;;
11490;SDS011;5802;52.832;4.758;2023-05-10T07:42:55;2.20;;;1.30;;
11490;SDS011;5802;52.832;4.758;2023-05-10T07:45:23;1.60;;;1.30;;
11490;SDS011;5802;52.832;4.758;2023-05-10T07:47:50;2.35;;;0.98;;
11490;SDS011;5802;52.832;4.758;2023-05-10T07:50:17;2.28;;;1.35;;
11490;SDS011;5802;52.832;4.758;2023-05-10T07:52:43;5.45;;;1.20;;
11490;SDS011;5802;52.832;4.758;2023-05-10T07:55:10;1.55;;;1.10;;
11490;SDS011;5802;52.832;4.758;2023-05-10T07:57:37;1.30;;;1.20;;
11490;SDS011;5802;52.832;4.758;2023-05-10T08:00:04;7.43;;;1.40;;
11490;SDS011;5802;52.832;4.758;2023-05-10T08:02:34;1.90;;;1.38;;
11490;SDS011;5802;52.832;4.758;2023-05-10T08:05:01;2.47;;;1.00;;
11490;SDS011;5802;52.832;4.758;2023-05-10T08:07:28;2.75;;;1.40;;
11490;SDS011;5802;52.832;4.758;2023-05-10T08:09:54;2.65;;;1.42;;
11490;SDS011;5802;52.832;4.758;2023-05-10T08:12:24;2.33;;;1.48;;
11490;SDS011;5802;52.832;4.758;2023-05-10T08:14:51;2.00;;;1.33;;
11490;SDS011;5802;52.832;4.758;2023-05-10T08:17:17;2.67;;;1.50;;
11490;SDS011;5802;52.832;4.758;2023-05-10T08:19:45;1.58;;;1.40;;
11490;SDS011;5802;52.832;4.758;2023-05-10T08:22:12;1.92;;;1.40;;
11490;SDS011;5802;52.832;4.758;2023-05-10T08:24:39;2.85;;;1.50;;
11490;SDS011;5802;52.832;4.758;2023-05-10T08:27:07;2.88;;;1.35;;
11490;SDS011;5802;52.832;4.758;2023-05-10T08:29:34;1.52;;;1.27;;
11490;SDS011;5802;52.832;4.758;2023-05-10T08:32:00;1.98;;;1.27;;
11490;SDS011;5802;52.832;4.758;2023-05-10T08:34:29;2.08;;;1.40;;
11490;SDS011;5802;52.832;4.758;2023-05-10T08:36:57;1.67;;;1.35;;
11490;SDS011;5802;52.832;4.758;2023-05-10T08:39:24;2.15;;;1.50;;
11490;SDS011;5802;52.832;4.758;2023-05-10T08:41:51;2.17;;;1.50;;
11490;SDS011;5802;52.832;4.758;2023-05-10T08:44:20;2.72;;;1.25;;
11490;SDS011;5802;52.832;4.758;2023-05-10T08:46:46;2.47;;;1.33;;
11490;SDS011;5802;52.832;4.758;2023-05-10T08:49:16;2.28;;;1.40;;
11490;SDS011;5802;52.832;4.758;2023-05-10T08:51:44;1.45;;;1.30;;
11490;SDS011;5802;52.832;4.758;2023-05-10T08:54:17;2.33;;;1.27;;
11490;SDS011;5802;52.832;4.758;2023-05-10T08:56:44;1.50;;;1.40;;
11490;SDS011;5802;52.832;4.758;2023-05-10T08:59:11;1.73;;;1.50;;
11490;SDS011;5802;52.832;4.758;2023-05-10T09:01:39;3.58;;;1.40;;
11490;SDS011;5802;52.832;4.758;2023-05-10T09:04:09;1.30;;;1.20;;
11490;SDS011;5802;52.832;4.758;2023-05-10T09:06:36;2.08;;;1.63;;
11490;SDS011;5802;52.832;4.758;2023-05-10T09:09:04;1.50;;;1.40;;
11490;SDS011;5802;52.832;4.758;2023-05-10T09:11:32;2.30;;;2.05;;
11490;SDS011;5802;52.832;4.758;2023-05-10T09:13:59;7.00;;;3.17;;
11490;SDS011;5802;52.832;4.758;2023-05-10T09:16:27;4.10;;;3.35;;
11490;SDS011;5802;52.832;4.758;2023-05-10T09:18:54;3.50;;;3.00;;
11490;SDS011;5802;52.832;4.758;2023-05-10T09:21:21;5.03;;;3.60;;
11490;SDS011;5802;52.832;4.758;2023-05-10T09:23:47;5.35;;;3.63;;
11490;SDS011;5802;52.832;4.758;2023-05-10T09:26:15;5.60;;;3.75;;
11490;SDS011;5802;52.832;4.758;2023-05-10T09:28:53;5.30;;;4.32;;
11490;SDS011;5802;52.832;4.758;2023-05-10T09:31:21;5.78;;;3.80;;
11490;SDS011;5802;52.832;4.758;2023-05-10T09:33:49;6.07;;;4.70;;
11490;SDS011;5802;52.832;4.758;2023-05-10T09:36:16;6.25;;;4.75;;
11490;SDS011;5802;52.832;4.758;2023-05-10T09:38:46;6.85;;;5.03;;
11490;SDS011;5802;52.832;4.758;2023-05-10T09:41:17;6.15;;;4.93;;
11490;SDS011;5802;52.832;4.758;2023-05-10T09:43:45;8.80;;;5.40;;
11490;SDS011;5802;52.832;4.758;2023-05-10T09:46:13;20.10;;;6.30;;
11490;SDS011;5802;52.832;4.758;2023-05-10T09:48:41;23.25;;;6.70;;
11490;SDS011;5802;52.832;4.758;2023-05-10T09:51:09;16.73;;;5.88;;
11490;SDS011;5802;52.832;4.758;2023-05-10T09:53:35;8.35;;;5.32;;
11490;SDS011;5802;52.832;4.758;2023-05-10T09:56:02;14.50;;;5.43;;
11490;SDS011;5802;52.832;4.758;2023-05-10T09:58:29;9.82;;;5.53;;
11490;SDS011;5802;52.832;4.758;2023-05-10T10:00:56;7.78;;;4.97;;
11490;SDS011;5802;52.832;4.758;2023-05-10T10:03:24;7.60;;;4.90;;
11490;SDS011;5802;52.832;4.758;2023-05-10T10:05:50;9.48;;;5.47;;
11490;SDS011;5802;52.832;4.758;2023-05-10T10:08:18;6.15;;;4.57;;
11490;SDS011;5802;52.832;4.758;2023-05-10T10:10:45;5.22;;;4.45;;
11490;SDS011;5802;52.832;4.758;2023-05-10T10:13:13;6.90;;;3.65;;
11490;SDS011;5802;52.832;4.758;2023-05-10T10:15:40;20.42;;;4.32;;
11490;SDS011;5802;52.832;4.758;2023-05-10T10:18:08;41.03;;;4.63;;
11490;SDS011;5802;52.832;4.758;2023-05-10T10:20:40;18.52;;;4.22;;
11490;SDS011;5802;52.832;4.758;2023-05-10T10:23:07;20.63;;;4.93;;
11490;SDS011;5802;52.832;4.758;2023-05-10T10:25:34;12.00;;;4.30;;
11490;SDS011;5802;52.832;4.758;2023-05-10T10:28:08;14.80;;;4.35;;
11490;SDS011;5802;52.832;4.758;2023-05-10T10:30:43;7.43;;;3.97;;
11490;SDS011;5802;52.832;4.758;2023-05-10T10:33:29;12.13;;;4.15;;
11490;SDS011;5802;52.832;4.758;2023-05-10T10:36:15;12.00;;;4.40;;
11490;SDS011;5802;52.832;4.758;2023-05-10T10:38:54;9.10;;;5.10;;
11490;SDS011;5802;52.832;4.758;2023-05-10T10:41:28;7.38;;;4.97;;
11490;SDS011;5802;52.832;4.758;2023-05-10T10:47:07;10.25;;;4.88;;
11490;SDS011;5802;52.832;4.758;2023-05-10T10:50:02;8.27;;;4.38;;
11490;SDS011;5802;52.832;4.758;2023-05-10T10:52:34;7.35;;;4.38;;
11490;SDS011;5802;52.832;4.758;2023-05-10T10:55:02;6.60;;;3.90;;
11490;SDS011;5802;52.832;4.758;2023-05-10T10:57:32;6.97;;;3.08;;
11490;SDS011;5802;52.832;4.758;2023-05-10T11:00:18;7.05;;;4.05;;
11490;SDS011;5802;52.832;4.758;2023-05-10T11:02:50;5.55;;;3.35;;
11490;SDS011;5802;52.832;4.758;2023-05-10T11:08:16;3.63;;;3.20;;
11490;SDS011;5802;52.832;4.758;2023-05-10T11:10:49;5.88;;;3.20;;
11490;SDS011;5802;52.832;4.758;2023-05-10T11:13:26;11.32;;;2.85;;
11490;SDS011;5802;52.832;4.758;2023-05-10T11:15:54;8.23;;;3.60;;
11490;SDS011;5802;52.832;4.758;2023-05-10T11:18:23;4.90;;;3.40;;
11490;SDS011;5802;52.832;4.758;2023-05-10T11:20:51;7.00;;;3.08;;
11490;SDS011;5802;52.832;4.758;2023-05-10T11:23:20;4.07;;;3.22;;
11490;SDS011;5802;52.832;4.758;2023-05-10T11:25:47;7.28;;;3.40;;
11490;SDS011;5802;52.832;4.758;2023-05-10T11:28:16;6.68;;;3.35;;
11490;SDS011;5802;52.832;4.758;2023-05-10T11:30:44;5.05;;;3.60;;
11490;SDS011;5802;52.832;4.758;2023-05-10T11:33:14;4.13;;;3.55;;
11490;SDS011;5802;52.832;4.758;2023-05-10T11:35:42;4.22;;;3.20;;
11490;SDS011;5802;52.832;4.758;2023-05-10T11:38:09;3.22;;;2.92;;
11490;SDS011;5802;52.832;4.758;2023-05-10T11:40:38;3.58;;;3.22;;
11490;SDS011;5802;52.832;4.758;2023-05-10T11:43:05;3.10;;;2.72;;
11490;SDS011;5802;52.832;4.758;2023-05-10T11:45:32;2.72;;;2.28;;
11490;SDS011;5802;52.832;4.758;2023-05-10T11:47:59;7.40;;;2.72;;
11490;SDS011;5802;52.832;4.758;2023-05-10T11:50:25;3.35;;;2.50;;
11490;SDS011;5802;52.832;4.758;2023-05-10T11:52:53;2.95;;;2.55;;
11490;SDS011;5802;52.832;4.758;2023-05-10T11:55:20;3.45;;;2.25;;
11490;SDS011;5802;52.832;4.758;2023-05-10T11:57:52;5.22;;;2.42;;
11490;SDS011;5802;52.832;4.758;2023-05-10T12:00:20;2.95;;;2.65;;
11490;SDS011;5802;52.832;4.758;2023-05-10T12:02:47;4.40;;;2.35;;
11490;SDS011;5802;52.832;4.758;2023-05-10T12:05:15;2.92;;;2.63;;
11490;SDS011;5802;52.832;4.758;2023-05-10T12:07:42;2.30;;;2.10;;
11490;SDS011;5802;52.832;4.758;2023-05-10T12:10:09;2.17;;;1.98;;
11490;SDS011;5802;52.832;4.758;2023-05-10T12:12:39;3.55;;;2.00;;
11490;SDS011;5802;52.832;4.758;2023-05-10T12:15:12;2.17;;;1.98;;
11490;SDS011;5802;52.832;4.758;2023-05-10T12:17:44;2.70;;;2.50;;
11490;SDS011;5802;52.832;4.758;2023-05-10T12:20:14;2.85;;;2.40;;
11490;SDS011;5802;52.832;4.758;2023-05-10T12:22:43;2.80;;;2.30;;
11490;SDS011;5802;52.832;4.758;2023-05-10T12:25:12;2.50;;;2.30;;
11490;SDS011;5802;52.832;4.758;2023-05-10T12:27:40;2.63;;;2.30;;
11490;SDS011;5802;52.832;4.758;2023-05-10T12:30:07;3.60;;;2.13;;
11490;SDS011;5802;52.832;4.758;2023-05-10T12:32:39;6.00;;;1.90;;
11490;SDS011;5802;52.832;4.758;2023-05-10T12:35:06;4.30;;;1.98;;
11490;SDS011;5802;52.832;4.758;2023-05-10T12:37:34;2.38;;;1.95;;
11490;SDS011;5802;52.832;4.758;2023-05-10T12:40:05;3.13;;;1.75;;
11490;SDS011;5802;52.832;4.758;2023-05-10T12:42:34;1.90;;;1.60;;
11490;SDS011;5802;52.832;4.758;2023-05-10T12:45:01;2.13;;;1.92;;
11490;SDS011;5802;52.832;4.758;2023-05-10T12:47:28;3.80;;;1.75;;
11490;SDS011;5802;52.832;4.758;2023-05-10T12:49:57;1.80;;;1.70;;
11490;SDS011;5802;52.832;4.758;2023-05-10T12:52:23;1.80;;;1.70;;
11490;SDS011;5802;52.832;4.758;2023-05-10T12:54:51;3.60;;;1.63;;
11490;SDS011;5802;52.832;4.758;2023-05-10T12:57:17;1.60;;;1.50;;
11490;SDS011;5802;52.832;4.758;2023-05-10T12:59:44;1.67;;;1.58;;
11490;SDS011;5802;52.832;4.758;2023-05-10T13:02:11;1.70;;;1.60;;
11490;SDS011;5802;52.832;4.758;2023-05-10T13:04:38;1.60;;;1.50;;
11490;SDS011;5802;52.832;4.758;2023-05-10T13:07:06;4.22;;;1.85;;
11490;SDS011;5802;52.832;4.758;2023-05-10T13:09:33;4.13;;;1.60;;
11490;SDS011;5802;52.832;4.758;2023-05-10T13:12:00;10.23;;;2.38;;
11490;SDS011;5802;52.832;4.758;2023-05-10T13:14:26;14.63;;;2.20;;
11490;SDS011;5802;52.832;4.758;2023-05-10T13:16:53;10.15;;;2.22;;
11490;SDS011;5802;52.832;4.758;2023-05-10T13:19:20;9.95;;;2.33;;
11490;SDS011;5802;52.832;4.758;2023-05-10T13:21:47;6.63;;;2.15;;
11490;SDS011;5802;52.832;4.758;2023-05-10T13:24:15;9.52;;;2.40;;
11490;SDS011;5802;52.832;4.758;2023-05-10T13:26:42;8.60;;;2.40;;
11490;SDS011;5802;52.832;4.758;2023-05-10T13:29:09;15.40;;;3.22;;
11490;SDS011;5802;52.832;4.758;2023-05-10T13:31:36;10.05;;;3.03;;
11490;SDS011;5802;52.832;4.758;2023-05-10T13:34:03;5.78;;;2.97;;
11490;SDS011;5802;52.832;4.758;2023-05-10T13:36:31;3.35;;;2.33;;
11490;SDS011;5802;52.832;4.758;2023-05-10T13:38:57;4.93;;;2.58;;
11490;SDS011;5802;52.832;4.758;2023-05-10T13:41:27;3.00;;;2.55;;
11490;SDS011;5802;52.832;4.758;2023-05-10T13:43:54;2.85;;;2.47;;
11490;SDS011;5802;52.832;4.758;2023-05-10T13:46:20;2.85;;;2.50;;
11490;SDS011;5802;52.832;4.758;2023-05-10T13:48:48;6.35;;;2.95;;
11490;SDS011;5802;52.832;4.758;2023-05-10T13:51:14;6.95;;;2.80;;
11490;SDS011;5802;52.832;4.758;2023-05-10T13:53:41;6.80;;;2.30;;
11490;SDS011;5802;52.832;4.758;2023-05-10T13:56:08;2.97;;;2.30;;
11490;SDS011;5802;52.832;4.758;2023-05-10T13:58:36;3.75;;;2.10;;
11490;SDS011;5802;52.832;4.758;2023-05-10T14:01:02;2.67;;;2.20;;
11490;SDS011;5802;52.832;4.758;2023-05-10T14:03:29;2.17;;;1.98;;
11490;SDS011;5802;52.832;4.758;2023-05-10T14:05:57;2.10;;;1.90;;
11490;SDS011;5802;52.832;4.758;2023-05-10T14:08:24;4.10;;;2.10;;
11490;SDS011;5802;52.832;4.758;2023-05-10T14:10:52;2.03;;;1.83;;
11490;SDS011;5802;52.832;4.758;2023-05-10T14:13:21;3.47;;;1.83;;
11490;SDS011;5802;52.832;4.758;2023-05-10T14:15:49;2.40;;;2.03;;
11490;SDS011;5802;52.832;4.758;2023-05-10T14:18:15;3.08;;;2.33;;
11490;SDS011;5802;52.832;4.758;2023-05-10T14:20:42;2.17;;;1.98;;
11490;SDS011;5802;52.832;4.758;2023-05-10T14:23:09;3.80;;;2.25;;
11490;SDS011;5802;52.832;4.758;2023-05-10T14:25:36;2.17;;;1.98;;
11490;SDS011;5802;52.832;4.758;2023-05-10T14:28:03;7.43;;;2.13;;
11490;SDS011;5802;52.832;4.758;2023-05-10T14:30:31;2.58;;;2.00;;
11490;SDS011;5802;52.832;4.758;2023-05-10T14:32:59;7.10;;;2.20;;
11490;SDS011;5802;52.832;4.758;2023-05-10T14:35:26;3.33;;;2.05;;
11490;SDS011;5802;52.832;4.758;2023-05-10T14:37:53;4.25;;;2.30;;
11490;SDS011;5802;52.832;4.758;2023-05-10T14:40:20;3.97;;;2.38;;
11490;SDS011;5802;52.832;4.758;2023-05-10T14:42:46;4.60;;;2.10;;
11490;SDS011;5802;52.832;4.758;2023-05-10T14:45:13;2.90;;;2.15;;
11490;SDS011;5802;52.832;4.758;2023-05-10T14:47:40;2.83;;;2.33;;
11490;SDS011;5802;52.832;4.758;2023-05-10T14:50:08;3.45;;;2.05;;
11490;SDS011;5802;52.832;4.758;2023-05-10T14:52:35;3.75;;;2.28;;
11490;SDS011;5802;52.832;4.758;2023-05-10T14:55:02;4.40;;;2.40;;
11490;SDS011;5802;52.832;4.758;2023-05-10T14:57:31;3.35;;;2.40;;
11490;SDS011;5802;52.832;4.758;2023-05-10T14:59:58;3.35;;;2.63;;
11490;SDS011;5802;52.832;4.758;2023-05-10T15:02:26;8.68;;;2.97;;
11490;SDS011;5802;52.832;4.758;2023-05-10T15:04:53;4.97;;;2.80;;
11490;SDS011;5802;52.832;4.758;2023-05-10T15:07:21;3.42;;;3.00;;
11490;SDS011;5802;52.832;4.758;2023-05-10T15:09:48;6.63;;;3.15;;
11490;SDS011;5802;52.832;4.758;2023-05-10T15:12:16;4.97;;;2.80;;
11490;SDS011;5802;52.832;4.758;2023-05-10T15:14:43;3.85;;;2.95;;